sensor_id;sensor_type;location;lat;lon;timestamp;P1;durP1;ratioP1;P2;durP2;ratioP2
9976;SDS011;5029;47.378;11.776;2023-02-15T00:02:30;4.00;;;3.33;;
9976;SDS011;5029;47.378;11.776;2023-02-15T00:07:33;4.73;;;3.73;;
9976;SDS011;5029;47.378;11.776;2023-02-15T00:12:38;5.13;;;3.07;;
9976;SDS011;5029;47.378;11.776;2023-02-15T00:17:41;4.77;;;4.07;;
9976;SDS011;5029;47.378;11.776;2023-02-15T00:22:45;4.50;;;3.30;;
9976;SDS011;5029;47.378;11.776;2023-02-15T00:27:49;5.00;;;3.40;;
9976;SDS011;5029;47.378;11.776;2023-02-15T00:32:53;4.60;;;3.30;;
9976;SDS011;5029;47.378;11.776;2023-02-15T00:37:56;3.87;;;2.80;;
9976;SDS011;5029;47.378;11.776;2023-02-15T00:43:01;4.37;;;2.90;;
9976;SDS011;5029;47.378;11.776;2023-02-15T00:48:04;6.53;;;3.70;;
9976;SDS011;5029;47.378;11.776;2023-02-15T00:53:07;4.93;;;3.60;;
9976;SDS011;5029;47.378;11.776;2023-02-15T00:58:12;5.57;;;3.90;;
9976;SDS011;5029;47.378;11.776;2023-02-15T01:03:17;5.07;;;3.20;;
9976;SDS011;5029;47.378;11.776;2023-02-15T01:08:21;6.60;;;3.23;;
9976;SDS011;5029;47.378;11.776;2023-02-15T01:13:25;6.10;;;3.47;;
9976;SDS011;5029;47.378;11.776;2023-02-15T01:18:29;4.53;;;3.60;;
9976;SDS011;5029;47.378;11.776;2023-02-15T01:23:32;5.53;;;2.93;;
9976;SDS011;5029;47.378;11.776;2023-02-15T01:28:37;6.60;;;3.63;;
9976;SDS011;5029;47.378;11.776;2023-02-15T01:33:40;3.67;;;3.03;;
9976;SDS011;5029;47.378;11.776;2023-02-15T01:38:44;4.43;;;2.87;;
9976;SDS011;5029;47.378;11.776;2023-02-15T01:43:49;6.13;;;3.67;;
9976;SDS011;5029;47.378;11.776;2023-02-15T01:48:56;3.97;;;3.43;;
9976;SDS011;5029;47.378;11.776;2023-02-15T01:54:05;5.33;;;3.20;;
9976;SDS011;5029;47.378;11.776;2023-02-15T01:59:15;7.57;;;3.23;;
9976;SDS011;5029;47.378;11.776;2023-02-15T02:04:23;4.07;;;3.17;;
9976;SDS011;5029;47.378;11.776;2023-02-15T02:09:33;4.80;;;3.50;;
9976;SDS011;5029;47.378;11.776;2023-02-15T02:14:39;4.73;;;3.10;;
9976;SDS011;5029;47.378;11.776;2023-02-15T02:25:30;4.73;;;3.10;;
9976;SDS011;5029;47.378;11.776;2023-02-15T02:31:20;6.43;;;3.10;;
9976;SDS011;5029;47.378;11.776;2023-02-15T02:36:41;4.57;;;3.00;;
9976;SDS011;5029;47.378;11.776;2023-02-15T02:41:55;4.90;;;3.50;;
9976;SDS011;5029;47.378;11.776;2023-02-15T02:47:04;5.30;;;3.23;;
9976;SDS011;5029;47.378;11.776;2023-02-15T02:57:40;5.43;;;3.23;;
9976;SDS011;5029;47.378;11.776;2023-02-15T03:02:49;4.57;;;3.10;;
9976;SDS011;5029;47.378;11.776;2023-02-15T03:07:58;4.93;;;2.60;;
9976;SDS011;5029;47.378;11.776;2023-02-15T03:13:07;4.60;;;2.50;;
9976;SDS011;5029;47.378;11.776;2023-02-15T03:18:11;3.57;;;2.83;;
9976;SDS011;5029;47.378;11.776;2023-02-15T03:23:16;4.07;;;2.90;;
9976;SDS011;5029;47.378;11.776;2023-02-15T03:28:25;5.10;;;2.60;;
9976;SDS011;5029;47.378;11.776;2023-02-15T03:33:33;4.93;;;3.07;;
9976;SDS011;5029;47.378;11.776;2023-02-15T03:38:44;4.93;;;2.70;;
9976;SDS011;5029;47.378;11.776;2023-02-15T03:43:51;4.40;;;2.30;;
9976;SDS011;5029;47.378;11.776;2023-02-15T03:48:58;3.73;;;2.60;;
9976;SDS011;5029;47.378;11.776;2023-02-15T03:54:08;4.87;;;2.80;;
9976;SDS011;5029;47.378;11.776;2023-02-15T03:59:12;5.33;;;2.53;;
9976;SDS011;5029;47.378;11.776;2023-02-15T04:04:34;2.93;;;2.20;;
9976;SDS011;5029;47.378;11.776;2023-02-15T04:09:40;3.00;;;2.57;;
9976;SDS011;5029;47.378;11.776;2023-02-15T04:15:01;3.60;;;2.40;;
9976;SDS011;5029;47.378;11.776;2023-02-15T04:20:22;3.77;;;2.70;;
9976;SDS011;5029;47.378;11.776;2023-02-15T04:25:44;3.10;;;2.60;;
9976;SDS011;5029;47.378;11.776;2023-02-15T04:30:48;5.73;;;2.43;;
9976;SDS011;5029;47.378;11.776;2023-02-15T04:35:51;3.27;;;2.60;;
9976;SDS011;5029;47.378;11.776;2023-02-15T04:40:56;5.97;;;2.60;;
9976;SDS011;5029;47.378;11.776;2023-02-15T04:45:59;4.30;;;2.80;;
9976;SDS011;5029;47.378;11.776;2023-02-15T04:51:04;3.60;;;2.77;;
9976;SDS011;5029;47.378;11.776;2023-02-15T04:56:10;4.13;;;2.73;;
9976;SDS011;5029;47.378;11.776;2023-02-15T05:01:13;4.27;;;2.73;;
9976;SDS011;5029;47.378;11.776;2023-02-15T05:06:16;2.90;;;2.43;;
9976;SDS011;5029;47.378;11.776;2023-02-15T05:11:21;4.93;;;2.80;;
9976;SDS011;5029;47.378;11.776;2023-02-15T05:16:24;4.23;;;2.53;;
9976;SDS011;5029;47.378;11.776;2023-02-15T05:21:29;3.00;;;2.50;;
9976;SDS011;5029;47.378;11.776;2023-02-15T05:26:34;3.60;;;2.70;;
9976;SDS011;5029;47.378;11.776;2023-02-15T05:31:54;3.83;;;2.47;;
9976;SDS011;5029;47.378;11.776;2023-02-15T05:36:58;10.17;;;2.83;;
9976;SDS011;5029;47.378;11.776;2023-02-15T05:42:03;7.33;;;3.70;;
9976;SDS011;5029;47.378;11.776;2023-02-15T05:47:06;7.47;;;5.23;;
9976;SDS011;5029;47.378;11.776;2023-02-15T05:52:09;6.37;;;4.50;;
9976;SDS011;5029;47.378;11.776;2023-02-15T05:57:14;6.60;;;5.90;;
9976;SDS011;5029;47.378;11.776;2023-02-15T06:02:18;8.33;;;7.00;;
9976;SDS011;5029;47.378;11.776;2023-02-15T06:07:21;6.77;;;6.00;;
9976;SDS011;5029;47.378;11.776;2023-02-15T06:12:26;8.17;;;5.70;;
9976;SDS011;5029;47.378;11.776;2023-02-15T06:17:29;4.80;;;2.90;;
9976;SDS011;5029;47.378;11.776;2023-02-15T06:22:32;3.23;;;2.73;;
9976;SDS011;5029;47.378;11.776;2023-02-15T06:27:37;10.10;;;4.27;;
9976;SDS011;5029;47.378;11.776;2023-02-15T06:32:43;5.67;;;3.90;;
9976;SDS011;5029;47.378;11.776;2023-02-15T06:37:47;4.60;;;3.23;;
9976;SDS011;5029;47.378;11.776;2023-02-15T06:42:52;5.73;;;4.40;;
9976;SDS011;5029;47.378;11.776;2023-02-15T06:47:55;6.40;;;4.20;;
9976;SDS011;5029;47.378;11.776;2023-02-15T06:52:59;4.30;;;3.03;;
9976;SDS011;5029;47.378;11.776;2023-02-15T06:58:03;4.93;;;3.97;;
9976;SDS011;5029;47.378;11.776;2023-02-15T07:03:07;9.37;;;3.93;;
9976;SDS011;5029;47.378;11.776;2023-02-15T07:08:10;3.97;;;3.37;;
9976;SDS011;5029;47.378;11.776;2023-02-15T07:13:15;6.27;;;3.27;;
9976;SDS011;5029;47.378;11.776;2023-02-15T07:18:18;4.20;;;3.20;;
9976;SDS011;5029;47.378;11.776;2023-02-15T07:23:21;4.03;;;3.10;;
9976;SDS011;5029;47.378;11.776;2023-02-15T07:28:28;4.53;;;3.37;;
9976;SDS011;5029;47.378;11.776;2023-02-15T07:33:31;6.07;;;3.40;;
9976;SDS011;5029;47.378;11.776;2023-02-15T07:38:35;4.87;;;3.80;;
9976;SDS011;5029;47.378;11.776;2023-02-15T07:43:42;4.03;;;2.90;;
9976;SDS011;5029;47.378;11.776;2023-02-15T07:48:46;3.70;;;2.93;;
9976;SDS011;5029;47.378;11.776;2023-02-15T07:53:50;6.07;;;3.53;;
9976;SDS011;5029;47.378;11.776;2023-02-15T07:58:55;5.10;;;3.30;;
9976;SDS011;5029;47.378;11.776;2023-02-15T08:03:59;8.40;;;3.10;;
9976;SDS011;5029;47.378;11.776;2023-02-15T08:09:03;6.70;;;3.43;;
9976;SDS011;5029;47.378;11.776;2023-02-15T08:14:09;4.77;;;3.60;;
9976;SDS011;5029;47.378;11.776;2023-02-15T08:19:15;4.83;;;3.57;;
9976;SDS011;5029;47.378;11.776;2023-02-15T08:24:20;5.97;;;3.60;;
9976;SDS011;5029;47.378;11.776;2023-02-15T08:29:26;3.93;;;3.07;;
9976;SDS011;5029;47.378;11.776;2023-02-15T08:34:31;7.07;;;3.30;;
9976;SDS011;5029;47.378;11.776;2023-02-15T08:39:36;8.07;;;3.83;;
9976;SDS011;5029;47.378;11.776;2023-02-15T08:44:41;3.80;;;3.00;;
9976;SDS011;5029;47.378;11.776;2023-02-15T08:49:44;5.57;;;3.50;;
9976;SDS011;5029;47.378;11.776;2023-02-15T08:54:48;5.73;;;3.57;;
9976;SDS011;5029;47.378;11.776;2023-02-15T08:59:52;6.00;;;3.10;;
9976;SDS011;5029;47.378;11.776;2023-02-15T09:04:56;3.73;;;2.97;;
9976;SDS011;5029;47.378;11.776;2023-02-15T09:09:59;2.77;;;2.30;;
9976;SDS011;5029;47.378;11.776;2023-02-15T09:15:04;3.10;;;1.97;;
9976;SDS011;5029;47.378;11.776;2023-02-15T09:20:09;1.87;;;1.50;;
9976;SDS011;5029;47.378;11.776;2023-02-15T09:25:12;2.40;;;1.53;;
9976;SDS011;5029;47.378;11.776;2023-02-15T09:30:17;1.83;;;1.60;;
9976;SDS011;5029;47.378;11.776;2023-02-15T09:35:21;2.17;;;1.67;;
9976;SDS011;5029;47.378;11.776;2023-02-15T09:40:24;1.97;;;1.60;;
9976;SDS011;5029;47.378;11.776;2023-02-15T09:45:32;2.43;;;1.90;;
9976;SDS011;5029;47.378;11.776;2023-02-15T09:50:53;2.23;;;1.33;;
9976;SDS011;5029;47.378;11.776;2023-02-15T09:56:06;1.50;;;1.20;;
9976;SDS011;5029;47.378;11.776;2023-02-15T10:01:20;1.30;;;1.20;;
9976;SDS011;5029;47.378;11.776;2023-02-15T10:06:32;1.40;;;1.20;;
9976;SDS011;5029;47.378;11.776;2023-02-15T10:11:50;1.60;;;1.30;;
9976;SDS011;5029;47.378;11.776;2023-02-15T10:17:08;1.53;;;1.33;;
9976;SDS011;5029;47.378;11.776;2023-02-15T10:22:24;1.70;;;1.30;;
9976;SDS011;5029;47.378;11.776;2023-02-15T10:27:36;1.67;;;1.27;;
9976;SDS011;5029;47.378;11.776;2023-02-15T10:32:50;2.37;;;1.87;;
9976;SDS011;5029;47.378;11.776;2023-02-15T10:38:14;2.30;;;1.70;;
9976;SDS011;5029;47.378;11.776;2023-02-15T10:43:27;1.97;;;1.50;;
9976;SDS011;5029;47.378;11.776;2023-02-15T10:48:50;1.40;;;1.10;;
9976;SDS011;5029;47.378;11.776;2023-02-15T10:54:16;2.00;;;1.30;;
9976;SDS011;5029;47.378;11.776;2023-02-15T10:59:31;0.80;;;0.80;;
9976;SDS011;5029;47.378;11.776;2023-02-15T11:05:01;2.13;;;1.30;;
9976;SDS011;5029;47.378;11.776;2023-02-15T11:10:22;1.20;;;1.00;;
9976;SDS011;5029;47.378;11.776;2023-02-15T11:15:33;1.33;;;1.00;;
9976;SDS011;5029;47.378;11.776;2023-02-15T11:20:43;1.30;;;1.10;;
9976;SDS011;5029;47.378;11.776;2023-02-15T11:25:52;1.80;;;0.97;;
9976;SDS011;5029;47.378;11.776;2023-02-15T11:31:00;2.50;;;1.40;;
9976;SDS011;5029;47.378;11.776;2023-02-15T11:36:15;1.87;;;1.27;;
9976;SDS011;5029;47.378;11.776;2023-02-15T11:41:22;1.10;;;1.00;;
9976;SDS011;5029;47.378;11.776;2023-02-15T11:46:30;1.80;;;1.20;;
9976;SDS011;5029;47.378;11.776;2023-02-15T11:51:35;2.03;;;1.10;;
9976;SDS011;5029;47.378;11.776;2023-02-15T11:56:39;1.47;;;1.37;;
9976;SDS011;5029;47.378;11.776;2023-02-15T12:01:43;1.50;;;1.00;;
9976;SDS011;5029;47.378;11.776;2023-02-15T12:06:49;1.10;;;0.97;;
9976;SDS011;5029;47.378;11.776;2023-02-15T12:12:21;1.30;;;0.87;;
9976;SDS011;5029;47.378;11.776;2023-02-15T12:17:27;2.27;;;1.17;;
9976;SDS011;5029;47.378;11.776;2023-02-15T12:22:36;1.10;;;0.80;;
9976;SDS011;5029;47.378;11.776;2023-02-15T12:27:40;2.50;;;0.87;;
9976;SDS011;5029;47.378;11.776;2023-02-15T12:32:47;2.00;;;0.80;;
9976;SDS011;5029;47.378;11.776;2023-02-15T12:37:56;1.00;;;0.80;;
9976;SDS011;5029;47.378;11.776;2023-02-15T12:43:03;1.00;;;0.80;;
9976;SDS011;5029;47.378;11.776;2023-02-15T12:48:13;1.20;;;1.10;;
9976;SDS011;5029;47.378;11.776;2023-02-15T12:53:20;2.03;;;1.00;;
9976;SDS011;5029;47.378;11.776;2023-02-15T12:58:32;2.33;;;1.00;;
9976;SDS011;5029;47.378;11.776;2023-02-15T13:03:37;1.00;;;0.73;;
9976;SDS011;5029;47.378;11.776;2023-02-15T13:08:46;1.17;;;0.87;;
9976;SDS011;5029;47.378;11.776;2023-02-15T13:13:52;1.20;;;0.90;;
9976;SDS011;5029;47.378;11.776;2023-02-15T13:18:57;1.10;;;1.00;;
9976;SDS011;5029;47.378;11.776;2023-02-15T13:24:12;4.83;;;0.90;;
9976;SDS011;5029;47.378;11.776;2023-02-15T13:29:21;2.90;;;1.03;;
9976;SDS011;5029;47.378;11.776;2023-02-15T13:34:28;1.30;;;1.10;;
9976;SDS011;5029;47.378;11.776;2023-02-15T13:39:38;2.20;;;1.00;;
9976;SDS011;5029;47.378;11.776;2023-02-15T13:44:59;1.30;;;1.00;;
9976;SDS011;5029;47.378;11.776;2023-02-15T13:50:20;1.43;;;0.93;;
9976;SDS011;5029;47.378;11.776;2023-02-15T13:55:37;1.70;;;1.20;;
9976;SDS011;5029;47.378;11.776;2023-02-15T14:00:47;4.10;;;1.10;;
9976;SDS011;5029;47.378;11.776;2023-02-15T14:11:26;2.23;;;1.10;;
9976;SDS011;5029;47.378;11.776;2023-02-15T14:16:36;2.40;;;1.30;;
9976;SDS011;5029;47.378;11.776;2023-02-15T14:22:08;2.00;;;1.07;;
9976;SDS011;5029;47.378;11.776;2023-02-15T14:27:21;4.07;;;1.10;;
9976;SDS011;5029;47.378;11.776;2023-02-15T14:32:32;2.70;;;1.10;;
9976;SDS011;5029;47.378;11.776;2023-02-15T14:37:39;1.63;;;1.17;;
9976;SDS011;5029;47.378;11.776;2023-02-15T14:42:50;1.40;;;0.87;;
9976;SDS011;5029;47.378;11.776;2023-02-15T14:48:02;1.03;;;0.93;;
9976;SDS011;5029;47.378;11.776;2023-02-15T14:58:42;1.13;;;0.80;;
9976;SDS011;5029;47.378;11.776;2023-02-15T15:04:02;1.27;;;1.00;;
9976;SDS011;5029;47.378;11.776;2023-02-15T15:09:11;1.40;;;1.00;;
9976;SDS011;5029;47.378;11.776;2023-02-15T15:25:08;2.90;;;1.20;;
9976;SDS011;5029;47.378;11.776;2023-02-15T15:36:10;1.10;;;1.00;;
9976;SDS011;5029;47.378;11.776;2023-02-15T15:41:45;2.53;;;1.23;;
9976;SDS011;5029;47.378;11.776;2023-02-15T15:52:24;1.30;;;0.90;;
9976;SDS011;5029;47.378;11.776;2023-02-15T15:57:30;1.07;;;0.87;;
9976;SDS011;5029;47.378;11.776;2023-02-15T16:02:35;1.30;;;0.83;;
9976;SDS011;5029;47.378;11.776;2023-02-15T16:07:54;1.00;;;0.90;;
9976;SDS011;5029;47.378;11.776;2023-02-15T16:12:59;1.27;;;1.17;;
9976;SDS011;5029;47.378;11.776;2023-02-15T16:18:03;1.40;;;1.20;;
9976;SDS011;5029;47.378;11.776;2023-02-15T16:23:16;1.73;;;1.30;;
9976;SDS011;5029;47.378;11.776;2023-02-15T16:28:47;2.57;;;1.47;;
9976;SDS011;5029;47.378;11.776;2023-02-15T16:33:53;3.33;;;1.50;;
9976;SDS011;5029;47.378;11.776;2023-02-15T16:39:09;2.10;;;1.80;;
9976;SDS011;5029;47.378;11.776;2023-02-15T16:44:20;2.40;;;1.83;;
9976;SDS011;5029;47.378;11.776;2023-02-15T16:49:26;2.60;;;1.70;;
9976;SDS011;5029;47.378;11.776;2023-02-15T16:54:33;5.67;;;2.53;;
9976;SDS011;5029;47.378;11.776;2023-02-15T16:59:38;1.57;;;1.23;;
9976;SDS011;5029;47.378;11.776;2023-02-15T17:04:53;1.50;;;1.37;;
9976;SDS011;5029;47.378;11.776;2023-02-15T17:10:31;1.20;;;0.93;;
9976;SDS011;5029;47.378;11.776;2023-02-15T17:15:39;1.43;;;1.27;;
9976;SDS011;5029;47.378;11.776;2023-02-15T17:20:45;1.63;;;1.30;;
9976;SDS011;5029;47.378;11.776;2023-02-15T17:25:53;1.53;;;1.27;;
9976;SDS011;5029;47.378;11.776;2023-02-15T17:30:58;4.33;;;2.83;;
9976;SDS011;5029;47.378;11.776;2023-02-15T17:36:16;7.77;;;4.57;;
9976;SDS011;5029;47.378;11.776;2023-02-15T17:41:38;6.07;;;3.60;;
9976;SDS011;5029;47.378;11.776;2023-02-15T17:46:43;4.23;;;2.77;;
9976;SDS011;5029;47.378;11.776;2023-02-15T17:51:49;4.20;;;2.40;;
9976;SDS011;5029;47.378;11.776;2023-02-15T17:56:58;3.27;;;2.90;;
9976;SDS011;5029;47.378;11.776;2023-02-15T18:02:07;4.03;;;3.00;;
9976;SDS011;5029;47.378;11.776;2023-02-15T18:07:31;5.90;;;3.20;;
9976;SDS011;5029;47.378;11.776;2023-02-15T18:12:54;4.50;;;2.60;;
9976;SDS011;5029;47.378;11.776;2023-02-15T18:18:00;2.23;;;1.97;;
9976;SDS011;5029;47.378;11.776;2023-02-15T18:23:09;3.47;;;2.70;;
9976;SDS011;5029;47.378;11.776;2023-02-15T18:28:18;3.40;;;2.20;;
9976;SDS011;5029;47.378;11.776;2023-02-15T18:33:27;3.20;;;2.37;;
9976;SDS011;5029;47.378;11.776;2023-02-15T18:38:37;2.80;;;2.20;;
9976;SDS011;5029;47.378;11.776;2023-02-15T18:43:45;4.17;;;1.90;;
9976;SDS011;5029;47.378;11.776;2023-02-15T18:48:56;2.90;;;2.10;;
9976;SDS011;5029;47.378;11.776;2023-02-15T18:54:04;2.67;;;2.10;;
9976;SDS011;5029;47.378;11.776;2023-02-15T18:59:18;2.43;;;2.00;;
9976;SDS011;5029;47.378;11.776;2023-02-15T19:04:24;2.70;;;2.20;;
9976;SDS011;5029;47.378;11.776;2023-02-15T19:09:29;2.73;;;2.20;;
9976;SDS011;5029;47.378;11.776;2023-02-15T19:14:36;3.23;;;2.30;;
9976;SDS011;5029;47.378;11.776;2023-02-15T19:19:43;4.30;;;2.30;;
9976;SDS011;5029;47.378;11.776;2023-02-15T19:24:49;3.10;;;2.03;;
9976;SDS011;5029;47.378;11.776;2023-02-15T19:29:58;2.17;;;1.60;;
9976;SDS011;5029;47.378;11.776;2023-02-15T19:35:05;2.53;;;1.20;;
9976;SDS011;5029;47.378;11.776;2023-02-15T19:40:18;2.00;;;1.70;;
9976;SDS011;5029;47.378;11.776;2023-02-15T19:45:32;2.70;;;1.37;;
9976;SDS011;5029;47.378;11.776;2023-02-15T19:50:39;4.33;;;3.43;;
9976;SDS011;5029;47.378;11.776;2023-02-15T19:55:48;3.37;;;2.93;;
9976;SDS011;5029;47.378;11.776;2023-02-15T20:00:58;4.17;;;2.97;;
9976;SDS011;5029;47.378;11.776;2023-02-15T20:06:05;4.87;;;2.73;;
9976;SDS011;5029;47.378;11.776;2023-02-15T20:11:15;2.60;;;2.03;;
9976;SDS011;5029;47.378;11.776;2023-02-15T20:16:22;2.50;;;2.03;;
9976;SDS011;5029;47.378;11.776;2023-02-15T20:21:29;3.17;;;1.60;;
9976;SDS011;5029;47.378;11.776;2023-02-15T20:26:35;1.93;;;1.73;;
9976;SDS011;5029;47.378;11.776;2023-02-15T20:31:43;3.30;;;2.50;;
9976;SDS011;5029;47.378;11.776;2023-02-15T20:36:56;2.47;;;1.60;;
9976;SDS011;5029;47.378;11.776;2023-02-15T20:42:01;2.17;;;1.90;;
9976;SDS011;5029;47.378;11.776;2023-02-15T20:47:08;3.70;;;2.87;;
9976;SDS011;5029;47.378;11.776;2023-02-15T20:52:15;5.00;;;3.07;;
9976;SDS011;5029;47.378;11.776;2023-02-15T20:57:22;5.30;;;3.60;;
9976;SDS011;5029;47.378;11.776;2023-02-15T21:02:31;4.50;;;2.80;;
9976;SDS011;5029;47.378;11.776;2023-02-15T21:07:37;3.13;;;2.60;;
9976;SDS011;5029;47.378;11.776;2023-02-15T21:12:42;4.47;;;2.80;;
9976;SDS011;5029;47.378;11.776;2023-02-15T21:17:49;2.60;;;2.20;;
9976;SDS011;5029;47.378;11.776;2023-02-15T21:22:55;4.30;;;3.77;;
9976;SDS011;5029;47.378;11.776;2023-02-15T21:28:09;5.63;;;3.80;;
9976;SDS011;5029;47.378;11.776;2023-02-15T21:33:23;3.80;;;3.00;;
9976;SDS011;5029;47.378;11.776;2023-02-15T21:38:29;2.77;;;2.20;;
9976;SDS011;5029;47.378;11.776;2023-02-15T21:43:34;2.37;;;2.07;;
9976;SDS011;5029;47.378;11.776;2023-02-15T21:48:57;2.77;;;2.30;;
9976;SDS011;5029;47.378;11.776;2023-02-15T21:54:02;4.07;;;2.97;;
9976;SDS011;5029;47.378;11.776;2023-02-15T21:59:08;3.33;;;2.77;;
9976;SDS011;5029;47.378;11.776;2023-02-15T22:04:17;4.63;;;2.80;;
9976;SDS011;5029;47.378;11.776;2023-02-15T22:09:27;2.67;;;2.03;;
9976;SDS011;5029;47.378;11.776;2023-02-15T22:14:33;3.37;;;2.63;;
9976;SDS011;5029;47.378;11.776;2023-02-15T22:19:40;4.67;;;3.13;;
9976;SDS011;5029;47.378;11.776;2023-02-15T22:24:43;3.37;;;3.03;;
9976;SDS011;5029;47.378;11.776;2023-02-15T22:29:47;3.53;;;3.10;;
9976;SDS011;5029;47.378;11.776;2023-02-15T22:34:52;5.60;;;3.50;;
9976;SDS011;5029;47.378;11.776;2023-02-15T22:39:56;4.17;;;3.30;;
9976;SDS011;5029;47.378;11.776;2023-02-15T22:44:59;5.70;;;3.67;;
9976;SDS011;5029;47.378;11.776;2023-02-15T22:50:11;7.83;;;4.40;;
9976;SDS011;5029;47.378;11.776;2023-02-15T22:55:17;7.27;;;4.17;;
9976;SDS011;5029;47.378;11.776;2023-02-15T23:00:23;6.17;;;4.40;;
9976;SDS011;5029;47.378;11.776;2023-02-15T23:05:29;8.57;;;4.10;;
9976;SDS011;5029;47.378;11.776;2023-02-15T23:10:33;4.53;;;3.67;;
9976;SDS011;5029;47.378;11.776;2023-02-15T23:15:36;4.93;;;3.47;;
9976;SDS011;5029;47.378;11.776;2023-02-15T23:20:42;6.03;;;3.97;;
9976;SDS011;5029;47.378;11.776;2023-02-15T23:25:46;7.43;;;4.23;;
9976;SDS011;5029;47.378;11.776;2023-02-15T23:30:49;6.50;;;3.97;;
9976;SDS011;5029;47.378;11.776;2023-02-15T23:35:54;4.10;;;3.50;;
9976;SDS011;5029;47.378;11.776;2023-02-15T23:40:58;5.20;;;3.43;;
9976;SDS011;5029;47.378;11.776;2023-02-15T23:46:25;4.33;;;3.40;;
9976;SDS011;5029;47.378;11.776;2023-02-15T23:51:32;5.03;;;3.70;;
9976;SDS011;5029;47.378;11.776;2023-02-15T23:56:36;5.93;;;3.50;;
